sensor_id;sensor_type;location;lat;lon;timestamp;P1;durP1;ratioP1;P2;durP2;ratioP2
11996;SDS011;6058;48.704;9.474;2022-12-20T00:02:07;34.40;;;17.93;;
11996;SDS011;6058;48.704;9.474;2022-12-20T00:04:34;40.30;;;22.77;;
11996;SDS011;6058;48.704;9.474;2022-12-20T00:07:02;40.17;;;19.83;;
11996;SDS011;6058;48.704;9.474;2022-12-20T00:09:29;32.13;;;18.50;;
11996;SDS011;6058;48.704;9.474;2022-12-20T00:11:59;36.07;;;18.27;;
11996;SDS011;6058;48.704;9.474;2022-12-20T00:14:26;32.03;;;17.97;;
11996;SDS011;6058;48.704;9.474;2022-12-20T00:16:53;34.63;;;18.27;;
11996;SDS011;6058;48.704;9.474;2022-12-20T00:19:22;34.60;;;17.47;;
11996;SDS011;6058;48.704;9.474;2022-12-20T00:21:49;30.37;;;16.40;;
11996;SDS011;6058;48.704;9.474;2022-12-20T00:24:16;31.47;;;17.83;;
11996;SDS011;6058;48.704;9.474;2022-12-20T00:26:43;41.47;;;20.77;;
11996;SDS011;6058;48.704;9.474;2022-12-20T00:29:10;33.37;;;19.70;;
11996;SDS011;6058;48.704;9.474;2022-12-20T00:31:38;29.73;;;17.60;;
11996;SDS011;6058;48.704;9.474;2022-12-20T00:34:05;34.60;;;18.13;;
11996;SDS011;6058;48.704;9.474;2022-12-20T00:36:33;32.07;;;17.33;;
11996;SDS011;6058;48.704;9.474;2022-12-20T00:39:00;31.83;;;17.90;;
11996;SDS011;6058;48.704;9.474;2022-12-20T00:41:29;31.03;;;17.33;;
11996;SDS011;6058;48.704;9.474;2022-12-20T00:43:56;29.63;;;15.13;;
11996;SDS011;6058;48.704;9.474;2022-12-20T00:46:23;29.93;;;16.20;;
11996;SDS011;6058;48.704;9.474;2022-12-20T00:48:51;30.60;;;16.93;;
11996;SDS011;6058;48.704;9.474;2022-12-20T00:51:19;32.43;;;18.33;;
11996;SDS011;6058;48.704;9.474;2022-12-20T00:53:48;30.07;;;16.03;;
11996;SDS011;6058;48.704;9.474;2022-12-20T00:56:15;27.43;;;14.47;;
11996;SDS011;6058;48.704;9.474;2022-12-20T00:58:43;24.87;;;13.93;;
11996;SDS011;6058;48.704;9.474;2022-12-20T01:01:14;25.23;;;13.60;;
11996;SDS011;6058;48.704;9.474;2022-12-20T01:03:41;27.17;;;13.70;;
11996;SDS011;6058;48.704;9.474;2022-12-20T01:06:09;33.27;;;18.00;;
11996;SDS011;6058;48.704;9.474;2022-12-20T01:08:36;26.83;;;16.47;;
11996;SDS011;6058;48.704;9.474;2022-12-20T01:11:06;31.37;;;16.80;;
11996;SDS011;6058;48.704;9.474;2022-12-20T01:13:34;30.07;;;17.00;;
11996;SDS011;6058;48.704;9.474;2022-12-20T01:16:02;29.73;;;16.10;;
11996;SDS011;6058;48.704;9.474;2022-12-20T01:18:30;33.17;;;17.23;;
11996;SDS011;6058;48.704;9.474;2022-12-20T01:21:00;32.73;;;18.23;;
11996;SDS011;6058;48.704;9.474;2022-12-20T01:23:28;32.90;;;18.17;;
11996;SDS011;6058;48.704;9.474;2022-12-20T01:25:56;34.20;;;18.13;;
11996;SDS011;6058;48.704;9.474;2022-12-20T01:28:25;31.00;;;17.43;;
11996;SDS011;6058;48.704;9.474;2022-12-20T01:30:52;38.60;;;18.40;;
11996;SDS011;6058;48.704;9.474;2022-12-20T01:33:19;30.23;;;16.57;;
11996;SDS011;6058;48.704;9.474;2022-12-20T01:35:56;30.30;;;16.37;;
11996;SDS011;6058;48.704;9.474;2022-12-20T01:38:24;30.03;;;16.13;;
11996;SDS011;6058;48.704;9.474;2022-12-20T01:40:51;37.10;;;18.93;;
11996;SDS011;6058;48.704;9.474;2022-12-20T01:43:19;36.90;;;18.07;;
11996;SDS011;6058;48.704;9.474;2022-12-20T01:45:49;30.13;;;16.93;;
11996;SDS011;6058;48.704;9.474;2022-12-20T01:48:17;34.87;;;16.90;;
11996;SDS011;6058;48.704;9.474;2022-12-20T01:50:46;31.53;;;17.80;;
11996;SDS011;6058;48.704;9.474;2022-12-20T01:53:14;32.30;;;16.80;;
11996;SDS011;6058;48.704;9.474;2022-12-20T01:55:42;30.67;;;16.37;;
11996;SDS011;6058;48.704;9.474;2022-12-20T01:58:11;32.60;;;17.23;;
11996;SDS011;6058;48.704;9.474;2022-12-20T02:00:39;29.53;;;17.40;;
11996;SDS011;6058;48.704;9.474;2022-12-20T02:03:08;35.70;;;18.03;;
11996;SDS011;6058;48.704;9.474;2022-12-20T02:05:37;33.47;;;17.47;;
11996;SDS011;6058;48.704;9.474;2022-12-20T02:08:05;29.03;;;17.07;;
11996;SDS011;6058;48.704;9.474;2022-12-20T02:10:36;26.20;;;14.20;;
11996;SDS011;6058;48.704;9.474;2022-12-20T02:13:09;22.73;;;13.97;;
11996;SDS011;6058;48.704;9.474;2022-12-20T02:15:39;24.60;;;14.00;;
11996;SDS011;6058;48.704;9.474;2022-12-20T02:18:15;22.13;;;12.97;;
11996;SDS011;6058;48.704;9.474;2022-12-20T02:20:45;30.13;;;15.47;;
11996;SDS011;6058;48.704;9.474;2022-12-20T02:26:16;24.17;;;13.63;;
11996;SDS011;6058;48.704;9.474;2022-12-20T02:28:53;26.87;;;13.53;;
11996;SDS011;6058;48.704;9.474;2022-12-20T02:31:29;25.57;;;14.23;;
11996;SDS011;6058;48.704;9.474;2022-12-20T02:33:58;29.93;;;14.90;;
11996;SDS011;6058;48.704;9.474;2022-12-20T02:36:26;27.77;;;14.87;;
11996;SDS011;6058;48.704;9.474;2022-12-20T02:38:53;29.73;;;15.67;;
11996;SDS011;6058;48.704;9.474;2022-12-20T02:41:21;29.73;;;15.57;;
11996;SDS011;6058;48.704;9.474;2022-12-20T02:43:55;24.30;;;13.83;;
11996;SDS011;6058;48.704;9.474;2022-12-20T02:46:41;29.17;;;15.30;;
11996;SDS011;6058;48.704;9.474;2022-12-20T02:49:10;27.83;;;15.37;;
11996;SDS011;6058;48.704;9.474;2022-12-20T02:51:38;24.63;;;14.83;;
11996;SDS011;6058;48.704;9.474;2022-12-20T02:54:06;27.63;;;14.50;;
11996;SDS011;6058;48.704;9.474;2022-12-20T02:56:34;23.40;;;12.33;;
11996;SDS011;6058;48.704;9.474;2022-12-20T02:59:05;19.30;;;12.00;;
11996;SDS011;6058;48.704;9.474;2022-12-20T03:01:34;24.20;;;13.97;;
11996;SDS011;6058;48.704;9.474;2022-12-20T03:04:04;26.70;;;15.30;;
11996;SDS011;6058;48.704;9.474;2022-12-20T03:06:32;24.27;;;14.60;;
11996;SDS011;6058;48.704;9.474;2022-12-20T03:09:00;25.53;;;13.93;;
11996;SDS011;6058;48.704;9.474;2022-12-20T03:11:27;28.17;;;15.73;;
11996;SDS011;6058;48.704;9.474;2022-12-20T03:13:54;24.20;;;14.90;;
11996;SDS011;6058;48.704;9.474;2022-12-20T03:16:21;22.40;;;13.13;;
11996;SDS011;6058;48.704;9.474;2022-12-20T03:18:48;22.33;;;11.40;;
11996;SDS011;6058;48.704;9.474;2022-12-20T03:21:17;24.27;;;14.47;;
11996;SDS011;6058;48.704;9.474;2022-12-20T03:23:44;27.20;;;14.77;;
11996;SDS011;6058;48.704;9.474;2022-12-20T03:26:11;25.97;;;13.63;;
11996;SDS011;6058;48.704;9.474;2022-12-20T03:28:38;21.80;;;12.07;;
11996;SDS011;6058;48.704;9.474;2022-12-20T03:31:05;24.23;;;13.43;;
11996;SDS011;6058;48.704;9.474;2022-12-20T03:33:33;26.97;;;14.40;;
11996;SDS011;6058;48.704;9.474;2022-12-20T03:36:00;21.67;;;13.17;;
11996;SDS011;6058;48.704;9.474;2022-12-20T03:38:28;26.53;;;13.37;;
11996;SDS011;6058;48.704;9.474;2022-12-20T03:40:55;25.47;;;14.17;;
11996;SDS011;6058;48.704;9.474;2022-12-20T03:43:22;22.83;;;12.83;;
11996;SDS011;6058;48.704;9.474;2022-12-20T03:45:49;26.80;;;14.67;;
11996;SDS011;6058;48.704;9.474;2022-12-20T03:48:16;23.00;;;13.57;;
11996;SDS011;6058;48.704;9.474;2022-12-20T03:50:44;23.30;;;13.03;;
11996;SDS011;6058;48.704;9.474;2022-12-20T03:53:11;26.10;;;13.10;;
11996;SDS011;6058;48.704;9.474;2022-12-20T03:55:39;20.93;;;13.20;;
11996;SDS011;6058;48.704;9.474;2022-12-20T03:58:06;22.00;;;12.83;;
11996;SDS011;6058;48.704;9.474;2022-12-20T04:00:34;23.67;;;12.97;;
11996;SDS011;6058;48.704;9.474;2022-12-20T04:03:01;21.17;;;13.33;;
11996;SDS011;6058;48.704;9.474;2022-12-20T04:05:28;23.03;;;13.10;;
11996;SDS011;6058;48.704;9.474;2022-12-20T04:07:55;22.37;;;12.90;;
11996;SDS011;6058;48.704;9.474;2022-12-20T04:10:22;23.93;;;15.27;;
11996;SDS011;6058;48.704;9.474;2022-12-20T04:12:50;21.43;;;12.93;;
11996;SDS011;6058;48.704;9.474;2022-12-20T04:15:17;20.17;;;12.03;;
11996;SDS011;6058;48.704;9.474;2022-12-20T04:17:45;26.87;;;13.97;;
11996;SDS011;6058;48.704;9.474;2022-12-20T04:20:15;27.87;;;14.67;;
11996;SDS011;6058;48.704;9.474;2022-12-20T04:22:46;25.43;;;13.13;;
11996;SDS011;6058;48.704;9.474;2022-12-20T04:25:13;21.23;;;12.53;;
11996;SDS011;6058;48.704;9.474;2022-12-20T04:27:40;24.10;;;12.67;;
11996;SDS011;6058;48.704;9.474;2022-12-20T04:30:10;28.33;;;14.10;;
11996;SDS011;6058;48.704;9.474;2022-12-20T04:32:37;22.27;;;12.87;;
11996;SDS011;6058;48.704;9.474;2022-12-20T04:35:04;19.50;;;11.60;;
11996;SDS011;6058;48.704;9.474;2022-12-20T04:37:32;22.63;;;12.63;;
11996;SDS011;6058;48.704;9.474;2022-12-20T04:39:59;27.57;;;13.53;;
11996;SDS011;6058;48.704;9.474;2022-12-20T04:42:26;25.10;;;14.20;;
11996;SDS011;6058;48.704;9.474;2022-12-20T04:44:53;16.90;;;10.53;;
11996;SDS011;6058;48.704;9.474;2022-12-20T04:47:23;23.30;;;11.77;;
11996;SDS011;6058;48.704;9.474;2022-12-20T04:49:50;22.03;;;12.83;;
11996;SDS011;6058;48.704;9.474;2022-12-20T04:52:17;23.37;;;12.80;;
11996;SDS011;6058;48.704;9.474;2022-12-20T04:55:02;20.83;;;13.23;;
11996;SDS011;6058;48.704;9.474;2022-12-20T04:57:29;24.27;;;12.27;;
11996;SDS011;6058;48.704;9.474;2022-12-20T04:59:56;27.03;;;14.33;;
11996;SDS011;6058;48.704;9.474;2022-12-20T05:02:24;21.13;;;13.10;;
11996;SDS011;6058;48.704;9.474;2022-12-20T05:04:52;20.60;;;11.80;;
11996;SDS011;6058;48.704;9.474;2022-12-20T05:07:19;18.80;;;12.87;;
11996;SDS011;6058;48.704;9.474;2022-12-20T05:09:46;24.27;;;13.77;;
11996;SDS011;6058;48.704;9.474;2022-12-20T05:12:13;25.63;;;13.60;;
11996;SDS011;6058;48.704;9.474;2022-12-20T05:14:40;20.60;;;13.40;;
11996;SDS011;6058;48.704;9.474;2022-12-20T05:17:07;25.90;;;13.63;;
11996;SDS011;6058;48.704;9.474;2022-12-20T05:19:36;24.90;;;14.33;;
11996;SDS011;6058;48.704;9.474;2022-12-20T05:22:03;26.00;;;11.90;;
11996;SDS011;6058;48.704;9.474;2022-12-20T05:24:48;24.40;;;14.03;;
11996;SDS011;6058;48.704;9.474;2022-12-20T05:27:32;19.17;;;12.63;;
11996;SDS011;6058;48.704;9.474;2022-12-20T05:29:59;21.17;;;11.67;;
11996;SDS011;6058;48.704;9.474;2022-12-20T05:32:27;25.17;;;12.63;;
11996;SDS011;6058;48.704;9.474;2022-12-20T05:34:55;25.90;;;17.97;;
11996;SDS011;6058;48.704;9.474;2022-12-20T05:37:22;25.17;;;14.33;;
11996;SDS011;6058;48.704;9.474;2022-12-20T05:39:49;23.13;;;14.37;;
11996;SDS011;6058;48.704;9.474;2022-12-20T05:42:16;25.53;;;13.23;;
11996;SDS011;6058;48.704;9.474;2022-12-20T05:44:44;21.00;;;12.23;;
11996;SDS011;6058;48.704;9.474;2022-12-20T05:47:11;24.60;;;13.73;;
11996;SDS011;6058;48.704;9.474;2022-12-20T05:49:41;25.27;;;13.17;;
11996;SDS011;6058;48.704;9.474;2022-12-20T05:52:09;20.83;;;12.77;;
11996;SDS011;6058;48.704;9.474;2022-12-20T05:54:37;24.30;;;13.37;;
11996;SDS011;6058;48.704;9.474;2022-12-20T05:57:04;20.50;;;12.27;;
11996;SDS011;6058;48.704;9.474;2022-12-20T05:59:31;27.23;;;14.33;;
11996;SDS011;6058;48.704;9.474;2022-12-20T06:02:00;24.03;;;13.33;;
11996;SDS011;6058;48.704;9.474;2022-12-20T06:04:27;21.97;;;12.83;;
11996;SDS011;6058;48.704;9.474;2022-12-20T06:06:54;21.30;;;12.77;;
11996;SDS011;6058;48.704;9.474;2022-12-20T06:09:22;19.27;;;11.73;;
11996;SDS011;6058;48.704;9.474;2022-12-20T06:11:50;21.60;;;12.03;;
11996;SDS011;6058;48.704;9.474;2022-12-20T06:14:17;22.60;;;13.40;;
11996;SDS011;6058;48.704;9.474;2022-12-20T06:16:44;18.90;;;12.70;;
11996;SDS011;6058;48.704;9.474;2022-12-20T06:19:11;21.40;;;12.30;;
11996;SDS011;6058;48.704;9.474;2022-12-20T06:21:39;22.70;;;12.87;;
11996;SDS011;6058;48.704;9.474;2022-12-20T06:24:06;21.23;;;12.97;;
11996;SDS011;6058;48.704;9.474;2022-12-20T06:26:34;22.43;;;13.07;;
11996;SDS011;6058;48.704;9.474;2022-12-20T06:29:02;21.93;;;13.77;;
11996;SDS011;6058;48.704;9.474;2022-12-20T06:31:31;20.43;;;12.87;;
11996;SDS011;6058;48.704;9.474;2022-12-20T06:33:58;19.30;;;12.63;;
11996;SDS011;6058;48.704;9.474;2022-12-20T06:36:25;22.83;;;13.50;;
11996;SDS011;6058;48.704;9.474;2022-12-20T06:38:52;20.53;;;13.03;;
11996;SDS011;6058;48.704;9.474;2022-12-20T06:41:26;18.57;;;11.33;;
11996;SDS011;6058;48.704;9.474;2022-12-20T06:43:55;21.67;;;12.33;;
11996;SDS011;6058;48.704;9.474;2022-12-20T06:46:22;20.30;;;11.87;;
11996;SDS011;6058;48.704;9.474;2022-12-20T06:48:49;19.77;;;12.10;;
11996;SDS011;6058;48.704;9.474;2022-12-20T06:51:19;18.53;;;11.20;;
11996;SDS011;6058;48.704;9.474;2022-12-20T06:53:46;21.50;;;12.53;;
11996;SDS011;6058;48.704;9.474;2022-12-20T06:56:13;24.00;;;13.13;;
11996;SDS011;6058;48.704;9.474;2022-12-20T06:58:40;23.33;;;12.13;;
11996;SDS011;6058;48.704;9.474;2022-12-20T07:01:08;21.83;;;11.80;;
11996;SDS011;6058;48.704;9.474;2022-12-20T07:03:36;21.57;;;12.40;;
11996;SDS011;6058;48.704;9.474;2022-12-20T07:06:03;25.33;;;12.97;;
11996;SDS011;6058;48.704;9.474;2022-12-20T07:08:30;22.57;;;11.87;;
11996;SDS011;6058;48.704;9.474;2022-12-20T07:11:01;22.17;;;9.97;;
11996;SDS011;6058;48.704;9.474;2022-12-20T07:13:29;21.27;;;12.03;;
11996;SDS011;6058;48.704;9.474;2022-12-20T07:15:56;19.43;;;11.53;;
11996;SDS011;6058;48.704;9.474;2022-12-20T07:18:25;23.13;;;13.07;;
11996;SDS011;6058;48.704;9.474;2022-12-20T07:20:52;20.43;;;11.50;;
11996;SDS011;6058;48.704;9.474;2022-12-20T07:23:20;19.33;;;12.27;;
11996;SDS011;6058;48.704;9.474;2022-12-20T07:25:51;19.83;;;11.53;;
11996;SDS011;6058;48.704;9.474;2022-12-20T07:28:19;19.37;;;10.70;;
11996;SDS011;6058;48.704;9.474;2022-12-20T07:30:46;18.93;;;10.80;;
11996;SDS011;6058;48.704;9.474;2022-12-20T07:33:13;21.93;;;11.17;;
11996;SDS011;6058;48.704;9.474;2022-12-20T07:35:41;27.37;;;13.23;;
11996;SDS011;6058;48.704;9.474;2022-12-20T07:38:09;20.33;;;11.23;;
11996;SDS011;6058;48.704;9.474;2022-12-20T07:40:38;23.00;;;12.30;;
11996;SDS011;6058;48.704;9.474;2022-12-20T07:43:06;21.27;;;12.37;;
11996;SDS011;6058;48.704;9.474;2022-12-20T07:45:33;21.33;;;11.90;;
11996;SDS011;6058;48.704;9.474;2022-12-20T07:48:01;23.10;;;11.93;;
11996;SDS011;6058;48.704;9.474;2022-12-20T07:50:28;19.50;;;11.90;;
11996;SDS011;6058;48.704;9.474;2022-12-20T07:52:58;16.93;;;11.83;;
11996;SDS011;6058;48.704;9.474;2022-12-20T07:55:26;20.03;;;12.37;;
11996;SDS011;6058;48.704;9.474;2022-12-20T07:57:55;18.17;;;11.80;;
11996;SDS011;6058;48.704;9.474;2022-12-20T08:00:24;20.40;;;12.07;;
11996;SDS011;6058;48.704;9.474;2022-12-20T08:02:53;19.17;;;10.77;;
11996;SDS011;6058;48.704;9.474;2022-12-20T08:05:21;18.73;;;10.83;;
11996;SDS011;6058;48.704;9.474;2022-12-20T08:07:50;20.73;;;11.73;;
11996;SDS011;6058;48.704;9.474;2022-12-20T08:10:19;29.07;;;17.57;;
11996;SDS011;6058;48.704;9.474;2022-12-20T08:12:46;24.50;;;13.03;;
11996;SDS011;6058;48.704;9.474;2022-12-20T08:15:14;23.13;;;12.73;;
11996;SDS011;6058;48.704;9.474;2022-12-20T08:17:41;25.67;;;14.37;;
11996;SDS011;6058;48.704;9.474;2022-12-20T08:20:09;18.80;;;12.20;;
11996;SDS011;6058;48.704;9.474;2022-12-20T08:22:36;23.97;;;14.00;;
11996;SDS011;6058;48.704;9.474;2022-12-20T08:25:03;24.50;;;13.90;;
11996;SDS011;6058;48.704;9.474;2022-12-20T08:27:32;20.77;;;12.43;;
11996;SDS011;6058;48.704;9.474;2022-12-20T08:29:59;30.13;;;16.93;;
11996;SDS011;6058;48.704;9.474;2022-12-20T08:32:26;32.43;;;18.87;;
11996;SDS011;6058;48.704;9.474;2022-12-20T08:34:53;26.20;;;16.93;;
11996;SDS011;6058;48.704;9.474;2022-12-20T08:37:21;28.47;;;15.53;;
11996;SDS011;6058;48.704;9.474;2022-12-20T08:39:48;26.10;;;15.07;;
11996;SDS011;6058;48.704;9.474;2022-12-20T08:42:15;27.07;;;15.60;;
11996;SDS011;6058;48.704;9.474;2022-12-20T08:44:43;25.43;;;13.37;;
11996;SDS011;6058;48.704;9.474;2022-12-20T08:47:20;21.63;;;13.03;;
11996;SDS011;6058;48.704;9.474;2022-12-20T08:49:47;23.20;;;12.47;;
11996;SDS011;6058;48.704;9.474;2022-12-20T08:52:15;20.27;;;12.30;;
11996;SDS011;6058;48.704;9.474;2022-12-20T08:54:42;21.97;;;12.77;;
11996;SDS011;6058;48.704;9.474;2022-12-20T08:57:09;22.17;;;12.17;;
11996;SDS011;6058;48.704;9.474;2022-12-20T08:59:36;20.63;;;12.30;;
11996;SDS011;6058;48.704;9.474;2022-12-20T09:02:05;18.57;;;11.20;;
11996;SDS011;6058;48.704;9.474;2022-12-20T09:04:32;18.77;;;13.03;;
11996;SDS011;6058;48.704;9.474;2022-12-20T09:06:59;22.07;;;12.70;;
11996;SDS011;6058;48.704;9.474;2022-12-20T09:09:26;19.93;;;12.30;;
11996;SDS011;6058;48.704;9.474;2022-12-20T09:11:53;24.70;;;14.27;;
11996;SDS011;6058;48.704;9.474;2022-12-20T09:14:21;24.60;;;13.63;;
11996;SDS011;6058;48.704;9.474;2022-12-20T09:16:48;24.50;;;13.70;;
11996;SDS011;6058;48.704;9.474;2022-12-20T09:19:17;21.37;;;12.53;;
11996;SDS011;6058;48.704;9.474;2022-12-20T09:21:44;19.63;;;11.07;;
11996;SDS011;6058;48.704;9.474;2022-12-20T09:24:11;22.40;;;12.70;;
11996;SDS011;6058;48.704;9.474;2022-12-20T09:26:38;21.70;;;12.17;;
11996;SDS011;6058;48.704;9.474;2022-12-20T09:29:05;19.53;;;12.57;;
11996;SDS011;6058;48.704;9.474;2022-12-20T09:31:32;21.97;;;13.37;;
11996;SDS011;6058;48.704;9.474;2022-12-20T09:34:00;30.97;;;16.07;;
11996;SDS011;6058;48.704;9.474;2022-12-20T09:36:29;28.07;;;15.80;;
11996;SDS011;6058;48.704;9.474;2022-12-20T09:38:56;27.77;;;16.03;;
11996;SDS011;6058;48.704;9.474;2022-12-20T09:41:25;27.07;;;15.80;;
11996;SDS011;6058;48.704;9.474;2022-12-20T09:43:54;27.97;;;16.90;;
11996;SDS011;6058;48.704;9.474;2022-12-20T09:46:21;24.63;;;15.20;;
11996;SDS011;6058;48.704;9.474;2022-12-20T09:48:49;30.87;;;18.37;;
11996;SDS011;6058;48.704;9.474;2022-12-20T09:51:20;28.00;;;17.20;;
11996;SDS011;6058;48.704;9.474;2022-12-20T09:53:54;27.40;;;16.57;;
11996;SDS011;6058;48.704;9.474;2022-12-20T09:56:29;26.93;;;16.30;;
11996;SDS011;6058;48.704;9.474;2022-12-20T09:58:58;27.73;;;16.30;;
11996;SDS011;6058;48.704;9.474;2022-12-20T10:01:25;27.07;;;16.17;;
11996;SDS011;6058;48.704;9.474;2022-12-20T10:03:53;27.63;;;15.33;;
11996;SDS011;6058;48.704;9.474;2022-12-20T10:06:24;31.47;;;16.77;;
11996;SDS011;6058;48.704;9.474;2022-12-20T10:08:55;24.13;;;15.27;;
11996;SDS011;6058;48.704;9.474;2022-12-20T10:14:12;31.80;;;15.73;;
11996;SDS011;6058;48.704;9.474;2022-12-20T10:16:44;28.17;;;16.93;;
11996;SDS011;6058;48.704;9.474;2022-12-20T10:19:19;24.80;;;14.90;;
11996;SDS011;6058;48.704;9.474;2022-12-20T10:21:49;20.83;;;14.40;;
11996;SDS011;6058;48.704;9.474;2022-12-20T10:24:22;25.73;;;14.47;;
11996;SDS011;6058;48.704;9.474;2022-12-20T10:26:51;23.90;;;14.37;;
11996;SDS011;6058;48.704;9.474;2022-12-20T10:29:18;22.00;;;12.90;;
11996;SDS011;6058;48.704;9.474;2022-12-20T10:31:46;20.80;;;12.20;;
11996;SDS011;6058;48.704;9.474;2022-12-20T10:34:14;22.83;;;12.47;;
11996;SDS011;6058;48.704;9.474;2022-12-20T10:36:41;22.03;;;12.50;;
11996;SDS011;6058;48.704;9.474;2022-12-20T10:39:08;25.47;;;14.13;;
11996;SDS011;6058;48.704;9.474;2022-12-20T10:41:46;23.47;;;13.77;;
11996;SDS011;6058;48.704;9.474;2022-12-20T10:44:17;25.93;;;15.10;;
11996;SDS011;6058;48.704;9.474;2022-12-20T10:46:45;24.67;;;13.47;;
11996;SDS011;6058;48.704;9.474;2022-12-20T10:49:26;21.30;;;13.10;;
11996;SDS011;6058;48.704;9.474;2022-12-20T10:51:55;24.90;;;13.50;;
11996;SDS011;6058;48.704;9.474;2022-12-20T10:54:23;23.73;;;14.17;;
11996;SDS011;6058;48.704;9.474;2022-12-20T10:56:56;24.90;;;14.93;;
11996;SDS011;6058;48.704;9.474;2022-12-20T10:59:26;27.13;;;14.23;;
11996;SDS011;6058;48.704;9.474;2022-12-20T11:01:54;21.27;;;14.00;;
11996;SDS011;6058;48.704;9.474;2022-12-20T11:04:24;22.57;;;13.27;;
11996;SDS011;6058;48.704;9.474;2022-12-20T11:06:52;25.23;;;14.40;;
11996;SDS011;6058;48.704;9.474;2022-12-20T11:09:23;21.87;;;13.53;;
11996;SDS011;6058;48.704;9.474;2022-12-20T11:12:00;24.10;;;14.20;;
11996;SDS011;6058;48.704;9.474;2022-12-20T11:14:27;27.40;;;14.73;;
11996;SDS011;6058;48.704;9.474;2022-12-20T11:16:55;23.73;;;14.93;;
11996;SDS011;6058;48.704;9.474;2022-12-20T11:19:30;25.50;;;14.00;;
11996;SDS011;6058;48.704;9.474;2022-12-20T11:22:02;22.47;;;14.13;;
11996;SDS011;6058;48.704;9.474;2022-12-20T11:24:32;24.53;;;14.23;;
11996;SDS011;6058;48.704;9.474;2022-12-20T11:27:15;23.27;;;13.83;;
11996;SDS011;6058;48.704;9.474;2022-12-20T11:29:50;28.63;;;15.23;;
11996;SDS011;6058;48.704;9.474;2022-12-20T11:32:24;29.27;;;14.20;;
11996;SDS011;6058;48.704;9.474;2022-12-20T11:34:57;25.33;;;15.50;;
11996;SDS011;6058;48.704;9.474;2022-12-20T11:37:30;30.30;;;15.60;;
11996;SDS011;6058;48.704;9.474;2022-12-20T11:40:05;26.23;;;15.07;;
11996;SDS011;6058;48.704;9.474;2022-12-20T11:42:41;27.70;;;15.20;;
11996;SDS011;6058;48.704;9.474;2022-12-20T11:45:13;21.33;;;13.67;;
11996;SDS011;6058;48.704;9.474;2022-12-20T11:47:54;26.43;;;15.00;;
11996;SDS011;6058;48.704;9.474;2022-12-20T11:50:32;25.90;;;15.23;;
11996;SDS011;6058;48.704;9.474;2022-12-20T11:53:01;27.87;;;15.43;;
11996;SDS011;6058;48.704;9.474;2022-12-20T11:55:32;26.03;;;14.97;;
11996;SDS011;6058;48.704;9.474;2022-12-20T11:58:08;19.37;;;13.50;;
11996;SDS011;6058;48.704;9.474;2022-12-20T12:00:36;18.47;;;13.23;;
11996;SDS011;6058;48.704;9.474;2022-12-20T12:03:08;23.60;;;14.67;;
11996;SDS011;6058;48.704;9.474;2022-12-20T12:05:39;23.07;;;14.53;;
11996;SDS011;6058;48.704;9.474;2022-12-20T12:08:10;28.27;;;15.30;;
11996;SDS011;6058;48.704;9.474;2022-12-20T12:10:38;22.20;;;14.30;;
11996;SDS011;6058;48.704;9.474;2022-12-20T12:13:10;27.10;;;15.90;;
11996;SDS011;6058;48.704;9.474;2022-12-20T12:15:45;27.33;;;14.77;;
11996;SDS011;6058;48.704;9.474;2022-12-20T12:18:15;24.83;;;15.23;;
11996;SDS011;6058;48.704;9.474;2022-12-20T12:20:46;29.07;;;15.17;;
11996;SDS011;6058;48.704;9.474;2022-12-20T12:23:18;24.43;;;15.07;;
11996;SDS011;6058;48.704;9.474;2022-12-20T12:25:47;28.40;;;16.07;;
11996;SDS011;6058;48.704;9.474;2022-12-20T12:28:16;27.77;;;16.13;;
11996;SDS011;6058;48.704;9.474;2022-12-20T12:30:46;30.00;;;16.17;;
11996;SDS011;6058;48.704;9.474;2022-12-20T12:33:15;23.07;;;15.27;;
11996;SDS011;6058;48.704;9.474;2022-12-20T12:35:51;31.33;;;17.57;;
11996;SDS011;6058;48.704;9.474;2022-12-20T12:38:26;25.80;;;15.10;;
11996;SDS011;6058;48.704;9.474;2022-12-20T12:41:04;23.10;;;15.27;;
11996;SDS011;6058;48.704;9.474;2022-12-20T12:43:49;23.83;;;14.80;;
11996;SDS011;6058;48.704;9.474;2022-12-20T12:46:18;28.83;;;16.50;;
11996;SDS011;6058;48.704;9.474;2022-12-20T12:48:50;32.03;;;18.97;;
11996;SDS011;6058;48.704;9.474;2022-12-20T12:51:20;29.60;;;18.93;;
11996;SDS011;6058;48.704;9.474;2022-12-20T12:53:49;28.10;;;17.40;;
11996;SDS011;6058;48.704;9.474;2022-12-20T12:56:28;31.97;;;21.33;;
11996;SDS011;6058;48.704;9.474;2022-12-20T12:59:18;36.77;;;22.37;;
11996;SDS011;6058;48.704;9.474;2022-12-20T13:01:47;34.60;;;21.17;;
11996;SDS011;6058;48.704;9.474;2022-12-20T13:04:22;28.83;;;17.27;;
11996;SDS011;6058;48.704;9.474;2022-12-20T13:06:53;26.20;;;14.53;;
11996;SDS011;6058;48.704;9.474;2022-12-20T13:09:34;25.80;;;15.87;;
11996;SDS011;6058;48.704;9.474;2022-12-20T13:14:48;23.50;;;14.97;;
11996;SDS011;6058;48.704;9.474;2022-12-20T13:19:57;24.70;;;15.57;;
11996;SDS011;6058;48.704;9.474;2022-12-20T13:22:25;24.07;;;15.63;;
11996;SDS011;6058;48.704;9.474;2022-12-20T13:24:54;26.10;;;15.90;;
11996;SDS011;6058;48.704;9.474;2022-12-20T13:27:22;28.73;;;16.67;;
11996;SDS011;6058;48.704;9.474;2022-12-20T13:29:52;21.43;;;14.33;;
11996;SDS011;6058;48.704;9.474;2022-12-20T13:35:12;25.33;;;14.90;;
11996;SDS011;6058;48.704;9.474;2022-12-20T13:37:54;26.90;;;15.13;;
11996;SDS011;6058;48.704;9.474;2022-12-20T13:40:22;23.17;;;15.27;;
11996;SDS011;6058;48.704;9.474;2022-12-20T13:42:51;26.10;;;15.03;;
11996;SDS011;6058;48.704;9.474;2022-12-20T13:45:21;28.70;;;16.13;;
11996;SDS011;6058;48.704;9.474;2022-12-20T13:47:50;30.20;;;17.27;;
11996;SDS011;6058;48.704;9.474;2022-12-20T13:50:29;27.80;;;16.73;;
11996;SDS011;6058;48.704;9.474;2022-12-20T13:52:59;28.53;;;15.83;;
11996;SDS011;6058;48.704;9.474;2022-12-20T13:55:31;31.57;;;16.83;;
11996;SDS011;6058;48.704;9.474;2022-12-20T13:58:02;28.80;;;17.47;;
11996;SDS011;6058;48.704;9.474;2022-12-20T14:00:31;24.47;;;15.60;;
11996;SDS011;6058;48.704;9.474;2022-12-20T14:02:59;31.50;;;16.53;;
11996;SDS011;6058;48.704;9.474;2022-12-20T14:05:30;29.00;;;16.23;;
11996;SDS011;6058;48.704;9.474;2022-12-20T14:07:58;25.17;;;14.80;;
11996;SDS011;6058;48.704;9.474;2022-12-20T14:10:26;24.77;;;15.47;;
11996;SDS011;6058;48.704;9.474;2022-12-20T14:12:54;21.83;;;15.40;;
11996;SDS011;6058;48.704;9.474;2022-12-20T14:15:22;25.03;;;15.03;;
11996;SDS011;6058;48.704;9.474;2022-12-20T14:17:51;26.97;;;15.03;;
11996;SDS011;6058;48.704;9.474;2022-12-20T14:20:20;24.87;;;15.40;;
11996;SDS011;6058;48.704;9.474;2022-12-20T14:22:50;24.83;;;16.33;;
11996;SDS011;6058;48.704;9.474;2022-12-20T14:25:21;24.87;;;16.00;;
11996;SDS011;6058;48.704;9.474;2022-12-20T14:27:53;24.47;;;17.07;;
11996;SDS011;6058;48.704;9.474;2022-12-20T14:30:25;27.00;;;16.60;;
11996;SDS011;6058;48.704;9.474;2022-12-20T14:32:54;30.80;;;18.57;;
11996;SDS011;6058;48.704;9.474;2022-12-20T14:35:21;26.73;;;18.40;;
11996;SDS011;6058;48.704;9.474;2022-12-20T14:37:52;26.17;;;15.90;;
11996;SDS011;6058;48.704;9.474;2022-12-20T14:40:19;25.77;;;15.83;;
11996;SDS011;6058;48.704;9.474;2022-12-20T14:42:46;27.33;;;16.63;;
11996;SDS011;6058;48.704;9.474;2022-12-20T14:45:18;27.83;;;15.77;;
11996;SDS011;6058;48.704;9.474;2022-12-20T14:47:55;24.87;;;15.53;;
11996;SDS011;6058;48.704;9.474;2022-12-20T14:50:24;23.23;;;14.87;;
11996;SDS011;6058;48.704;9.474;2022-12-20T14:52:52;26.07;;;15.57;;
11996;SDS011;6058;48.704;9.474;2022-12-20T14:55:20;27.63;;;16.83;;
11996;SDS011;6058;48.704;9.474;2022-12-20T14:57:49;25.30;;;16.03;;
11996;SDS011;6058;48.704;9.474;2022-12-20T15:00:22;25.37;;;15.20;;